sensor_id;sensor_type;location;lat;lon;timestamp;pressure;altitude;pressure_sealevel;temperature;humidity
18795;BME280;29610;49.022;12.114;2023-04-30T00:00:35;97942.03;;;12.16;100.00
18795;BME280;29610;49.022;12.114;2023-04-30T00:03:24;97942.19;;;12.11;100.00
18795;BME280;29610;49.022;12.114;2023-04-30T00:06:13;97949.06;;;12.17;100.00
18795;BME280;29610;49.022;12.114;2023-04-30T00:09:03;97948.16;;;12.04;100.00
18795;BME280;29610;49.022;12.114;2023-04-30T00:11:52;97940.31;;;12.03;100.00
18795;BME280;29610;49.022;12.114;2023-04-30T00:14:41;97944.78;;;11.99;100.00
18795;BME280;29610;49.022;12.114;2023-04-30T00:17:30;97950.88;;;12.04;100.00
18795;BME280;29610;49.022;12.114;2023-04-30T00:20:19;97951.84;;;11.91;100.00
18795;BME280;29610;49.022;12.114;2023-04-30T00:23:08;97949.13;;;11.91;100.00
18795;BME280;29610;49.022;12.114;2023-04-30T00:25:58;97942.72;;;11.96;100.00
18795;BME280;29610;49.022;12.114;2023-04-30T00:28:47;97954.09;;;11.98;100.00
18795;BME280;29610;49.022;12.114;2023-04-30T00:31:36;97943.81;;;12.03;100.00
18795;BME280;29610;49.022;12.114;2023-04-30T00:34:25;97945.59;;;11.99;100.00
18795;BME280;29610;49.022;12.114;2023-04-30T00:37:14;97943.53;;;11.96;100.00
18795;BME280;29610;49.022;12.114;2023-04-30T00:40:05;97947.34;;;11.95;100.00
18795;BME280;29610;49.022;12.114;2023-04-30T00:42:55;97947.34;;;11.95;100.00
18795;BME280;29610;49.022;12.114;2023-04-30T00:45:44;97958.75;;;11.89;100.00
18795;BME280;29610;49.022;12.114;2023-04-30T00:48:33;97948.00;;;11.92;100.00
18795;BME280;29610;49.022;12.114;2023-04-30T00:51:23;97953.00;;;11.90;100.00
18795;BME280;29610;49.022;12.114;2023-04-30T00:54:12;97952.50;;;11.97;100.00
18795;BME280;29610;49.022;12.114;2023-04-30T00:57:04;97957.41;;;12.03;100.00
18795;BME280;29610;49.022;12.114;2023-04-30T00:59:55;97961.94;;;11.99;100.00
18795;BME280;29610;49.022;12.114;2023-04-30T01:02:44;97961.13;;;11.99;100.00
18795;BME280;29610;49.022;12.114;2023-04-30T01:05:33;97965.44;;;12.08;100.00
18795;BME280;29610;49.022;12.114;2023-04-30T01:08:22;97960.66;;;11.97;100.00
18795;BME280;29610;49.022;12.114;2023-04-30T01:11:25;97957.41;;;12.03;100.00
18795;BME280;29610;49.022;12.114;2023-04-30T01:14:24;97959.69;;;12.01;100.00
18795;BME280;29610;49.022;12.114;2023-04-30T01:17:25;97972.81;;;12.08;100.00
18795;BME280;29610;49.022;12.114;2023-04-30T01:20:17;97975.09;;;11.80;100.00
18795;BME280;29610;49.022;12.114;2023-04-30T01:23:21;97977.81;;;11.89;100.00
18795;BME280;29610;49.022;12.114;2023-04-30T01:26:28;97974.28;;;11.88;100.00
18795;BME280;29610;49.022;12.114;2023-04-30T01:29:25;97973.97;;;11.90;100.00
18795;BME280;29610;49.022;12.114;2023-04-30T01:32:15;97984.22;;;12.01;100.00
18795;BME280;29610;49.022;12.114;2023-04-30T01:35:05;97982.25;;;12.10;100.00
18795;BME280;29610;49.022;12.114;2023-04-30T01:38:05;97979.84;;;12.09;100.00
18795;BME280;29610;49.022;12.114;2023-04-30T01:41:08;97986.91;;;12.10;100.00
18795;BME280;29610;49.022;12.114;2023-04-30T01:44:16;97981.75;;;12.17;100.00
18795;BME280;29610;49.022;12.114;2023-04-30T01:47:28;97989.28;;;12.11;100.00
18795;BME280;29610;49.022;12.114;2023-04-30T01:50:28;97992.72;;;12.00;100.00
18795;BME280;29610;49.022;12.114;2023-04-30T01:53:31;97995.56;;;12.12;100.00
18795;BME280;29610;49.022;12.114;2023-04-30T01:56:26;97983.72;;;11.99;100.00
18795;BME280;29610;49.022;12.114;2023-04-30T01:59:16;97983.41;;;11.92;100.00
18795;BME280;29610;49.022;12.114;2023-04-30T02:02:06;97986.94;;;11.93;100.00
18795;BME280;29610;49.022;12.114;2023-04-30T02:04:56;97994.94;;;11.89;100.00
18795;BME280;29610;49.022;12.114;2023-04-30T02:07:49;97999.16;;;11.69;100.00
18795;BME280;29610;49.022;12.114;2023-04-30T02:10:38;97989.97;;;11.82;100.00
18795;BME280;29610;49.022;12.114;2023-04-30T02:13:27;97996.06;;;11.62;100.00
18795;BME280;29610;49.022;12.114;2023-04-30T02:16:16;97999.44;;;11.68;100.00
18795;BME280;29610;49.022;12.114;2023-04-30T02:19:05;98002.50;;;11.75;100.00
18795;BME280;29610;49.022;12.114;2023-04-30T02:21:56;97998.78;;;11.62;100.00
18795;BME280;29610;49.022;12.114;2023-04-30T02:24:45;97998.28;;;11.60;100.00
18795;BME280;29610;49.022;12.114;2023-04-30T02:27:34;98002.47;;;11.58;100.00
18795;BME280;29610;49.022;12.114;2023-04-30T02:30:23;97999.91;;;11.61;100.00
18795;BME280;29610;49.022;12.114;2023-04-30T02:33:12;98001.53;;;11.71;100.00
18795;BME280;29610;49.022;12.114;2023-04-30T02:36:01;98005.06;;;11.63;100.00
18795;BME280;29610;49.022;12.114;2023-04-30T02:38:51;98007.28;;;11.61;100.00
18795;BME280;29610;49.022;12.114;2023-04-30T02:41:40;98005.66;;;11.51;100.00
18795;BME280;29610;49.022;12.114;2023-04-30T02:44:29;98007.78;;;11.63;100.00
18795;BME280;29610;49.022;12.114;2023-04-30T02:47:18;98005.84;;;11.63;100.00
18795;BME280;29610;49.022;12.114;2023-04-30T02:50:08;98007.16;;;11.66;100.00
18795;BME280;29610;49.022;12.114;2023-04-30T02:52:57;98002.13;;;11.51;100.00
18795;BME280;29610;49.022;12.114;2023-04-30T02:55:47;98002.63;;;11.53;100.00
18795;BME280;29610;49.022;12.114;2023-04-30T02:58:36;98000.53;;;11.50;100.00
18795;BME280;29610;49.022;12.114;2023-04-30T03:01:25;98002.47;;;11.49;100.00
18795;BME280;29610;49.022;12.114;2023-04-30T03:04:14;98001.50;;;11.54;100.00
18795;BME280;29610;49.022;12.114;2023-04-30T03:07:03;98015.75;;;11.51;100.00
18795;BME280;29610;49.022;12.114;2023-04-30T03:09:54;98009.16;;;11.35;100.00
18795;BME280;29610;49.022;12.114;2023-04-30T03:12:45;98012.06;;;11.47;100.00
18795;BME280;29610;49.022;12.114;2023-04-30T03:15:33;98014.31;;;11.45;100.00
18795;BME280;29610;49.022;12.114;2023-04-30T03:18:22;98012.06;;;11.38;100.00
18795;BME280;29610;49.022;12.114;2023-04-30T03:21:12;98016.38;;;11.31;100.00
18795;BME280;29610;49.022;12.114;2023-04-30T03:24:00;98017.63;;;11.25;100.00
18795;BME280;29610;49.022;12.114;2023-04-30T03:26:50;98012.34;;;11.20;100.00
18795;BME280;29610;49.022;12.114;2023-04-30T03:29:40;98011.06;;;11.17;100.00
18795;BME280;29610;49.022;12.114;2023-04-30T03:32:29;98024.00;;;11.20;100.00
18795;BME280;29610;49.022;12.114;2023-04-30T03:35:19;98020.97;;;11.22;100.00
18795;BME280;29610;49.022;12.114;2023-04-30T03:38:08;98016.50;;;11.17;100.00
18795;BME280;29610;49.022;12.114;2023-04-30T03:40:57;98021.00;;;11.30;100.00
18795;BME280;29610;49.022;12.114;2023-04-30T03:43:46;98025.31;;;11.23;100.00
18795;BME280;29610;49.022;12.114;2023-04-30T03:46:36;98014.13;;;11.24;100.00
18795;BME280;29610;49.022;12.114;2023-04-30T03:49:25;98011.41;;;11.24;100.00
18795;BME280;29610;49.022;12.114;2023-04-30T03:52:14;98016.16;;;11.19;100.00
18795;BME280;29610;49.022;12.114;2023-04-30T03:55:03;98010.72;;;11.10;100.00
18795;BME280;29610;49.022;12.114;2023-04-30T03:57:53;98016.00;;;11.15;100.00
18795;BME280;29610;49.022;12.114;2023-04-30T04:00:43;98016.00;;;11.07;100.00
18795;BME280;29610;49.022;12.114;2023-04-30T04:03:35;98016.97;;;11.19;100.00
18795;BME280;29610;49.022;12.114;2023-04-30T04:06:25;98018.91;;;11.10;100.00
18795;BME280;29610;49.022;12.114;2023-04-30T04:09:14;98015.84;;;11.12;100.00
18795;BME280;29610;49.022;12.114;2023-04-30T04:12:04;98013.91;;;11.12;100.00
18795;BME280;29610;49.022;12.114;2023-04-30T04:14:53;98017.31;;;11.18;100.00
18795;BME280;29610;49.022;12.114;2023-04-30T04:17:43;98027.50;;;11.04;100.00
18795;BME280;29610;49.022;12.114;2023-04-30T04:20:33;98028.97;;;11.10;100.00
18795;BME280;29610;49.022;12.114;2023-04-30T04:23:22;98021.63;;;11.10;100.00
18795;BME280;29610;49.022;12.114;2023-04-30T04:26:11;98024.66;;;11.17;100.00
18795;BME280;29610;49.022;12.114;2023-04-30T04:29:02;98029.59;;;11.07;100.00
18795;BME280;29610;49.022;12.114;2023-04-30T04:31:51;98032.97;;;11.21;100.00
18795;BME280;29610;49.022;12.114;2023-04-30T04:34:42;98031.06;;;11.21;100.00
18795;BME280;29610;49.022;12.114;2023-04-30T04:37:34;98031.41;;;11.28;100.00
18795;BME280;29610;49.022;12.114;2023-04-30T04:40:23;98047.56;;;11.33;100.00
18795;BME280;29610;49.022;12.114;2023-04-30T04:43:12;98040.84;;;11.31;100.00
18795;BME280;29610;49.022;12.114;2023-04-30T04:46:01;98050.44;;;11.28;100.00
18795;BME280;29610;49.022;12.114;2023-04-30T04:48:50;98051.91;;;11.34;100.00
18795;BME280;29610;49.022;12.114;2023-04-30T04:51:39;98057.31;;;11.26;100.00
18795;BME280;29610;49.022;12.114;2023-04-30T04:54:30;98050.50;;;11.45;100.00
18795;BME280;29610;49.022;12.114;2023-04-30T04:57:19;98048.25;;;11.56;100.00
18795;BME280;29610;49.022;12.114;2023-04-30T05:00:08;98053.38;;;11.57;100.00
18795;BME280;29610;49.022;12.114;2023-04-30T05:02:59;98049.41;;;11.63;100.00
18795;BME280;29610;49.022;12.114;2023-04-30T05:05:48;98055.34;;;11.65;100.00
18795;BME280;29610;49.022;12.114;2023-04-30T05:08:38;98055.69;;;11.72;100.00
18795;BME280;29610;49.022;12.114;2023-04-30T05:11:28;98050.53;;;11.88;100.00
18795;BME280;29610;49.022;12.114;2023-04-30T05:14:17;98058.41;;;11.98;100.00
18795;BME280;29610;49.022;12.114;2023-04-30T05:17:07;98054.88;;;12.06;100.00
18795;BME280;29610;49.022;12.114;2023-04-30T05:19:57;98054.03;;;12.23;100.00
18795;BME280;29610;49.022;12.114;2023-04-30T05:22:46;98054.97;;;12.44;100.00
18795;BME280;29610;49.022;12.114;2023-04-30T05:25:34;98055.94;;;12.39;100.00
18795;BME280;29610;49.022;12.114;2023-04-30T05:28:25;98055.41;;;12.54;100.00
18795;BME280;29610;49.022;12.114;2023-04-30T05:31:14;98058.50;;;12.44;100.00
18795;BME280;29610;49.022;12.114;2023-04-30T05:34:04;98057.84;;;12.30;100.00
18795;BME280;29610;49.022;12.114;2023-04-30T05:36:54;98065.38;;;12.50;100.00
18795;BME280;29610;49.022;12.114;2023-04-30T05:39:43;98061.31;;;12.65;100.00
18795;BME280;29610;49.022;12.114;2023-04-30T05:42:32;98064.22;;;12.68;100.00
18795;BME280;29610;49.022;12.114;2023-04-30T05:45:23;98067.88;;;12.72;100.00
18795;BME280;29610;49.022;12.114;2023-04-30T05:48:12;98070.28;;;12.74;100.00
18795;BME280;29610;49.022;12.114;2023-04-30T05:51:01;98060.78;;;12.80;100.00
18795;BME280;29610;49.022;12.114;2023-04-30T05:53:50;98065.06;;;12.89;100.00
18795;BME280;29610;49.022;12.114;2023-04-30T05:56:39;98067.44;;;12.99;100.00
18795;BME280;29610;49.022;12.114;2023-04-30T05:59:28;98081.94;;;12.83;100.00
18795;BME280;29610;49.022;12.114;2023-04-30T06:02:18;98074.69;;;13.04;100.00
18795;BME280;29610;49.022;12.114;2023-04-30T06:05:11;98075.88;;;13.23;100.00
18795;BME280;29610;49.022;12.114;2023-04-30T06:08:04;98077.97;;;13.18;100.00
18795;BME280;29610;49.022;12.114;2023-04-30T06:10:56;98081.75;;;13.34;100.00
18795;BME280;29610;49.022;12.114;2023-04-30T06:13:46;98083.69;;;13.34;100.00
18795;BME280;29610;49.022;12.114;2023-04-30T06:16:36;98092.72;;;13.26;100.00
18795;BME280;29610;49.022;12.114;2023-04-30T06:19:27;98080.06;;;13.21;100.00
18795;BME280;29610;49.022;12.114;2023-04-30T06:22:16;98083.41;;;13.27;100.00
18795;BME280;29610;49.022;12.114;2023-04-30T06:25:07;98082.13;;;13.53;100.00
18795;BME280;29610;49.022;12.114;2023-04-30T06:27:56;98084.44;;;13.92;100.00
18795;BME280;29610;49.022;12.114;2023-04-30T06:30:46;98081.75;;;14.04;100.00
18795;BME280;29610;49.022;12.114;2023-04-30T06:33:36;98074.16;;;14.10;100.00
18795;BME280;29610;49.022;12.114;2023-04-30T06:36:26;98087.03;;;14.30;100.00
18795;BME280;29610;49.022;12.114;2023-04-30T06:39:15;98079.44;;;13.94;100.00
18795;BME280;29610;49.022;12.114;2023-04-30T06:42:04;98088.41;;;13.95;100.00
18795;BME280;29610;49.022;12.114;2023-04-30T06:44:53;98079.97;;;14.29;100.00
18795;BME280;29610;49.022;12.114;2023-04-30T06:47:43;98089.38;;;14.52;100.00
18795;BME280;29610;49.022;12.114;2023-04-30T06:50:32;98077.28;;;14.20;100.00
18795;BME280;29610;49.022;12.114;2023-04-30T06:53:23;98078.97;;;14.66;100.00
18795;BME280;29610;49.022;12.114;2023-04-30T06:56:12;98087.72;;;14.72;100.00
18795;BME280;29610;49.022;12.114;2023-04-30T06:59:07;98086.50;;;14.81;100.00
18795;BME280;29610;49.022;12.114;2023-04-30T07:01:56;98081.31;;;15.12;100.00
18795;BME280;29610;49.022;12.114;2023-04-30T07:04:45;98091.13;;;15.25;100.00
18795;BME280;29610;49.022;12.114;2023-04-30T07:07:36;98080.97;;;15.14;100.00
18795;BME280;29610;49.022;12.114;2023-04-30T07:10:26;98081.06;;;15.05;100.00
18795;BME280;29610;49.022;12.114;2023-04-30T07:13:15;98085.59;;;14.77;100.00
18795;BME280;29610;49.022;12.114;2023-04-30T07:16:06;98078.91;;;14.99;100.00
18795;BME280;29610;49.022;12.114;2023-04-30T07:18:57;98086.56;;;15.29;100.00
18795;BME280;29610;49.022;12.114;2023-04-30T07:21:46;98081.53;;;15.19;100.00
18795;BME280;29610;49.022;12.114;2023-04-30T07:24:36;98084.56;;;14.82;100.00
18795;BME280;29610;49.022;12.114;2023-04-30T07:27:26;98088.38;;;15.01;100.00
18795;BME280;29610;49.022;12.114;2023-04-30T07:30:16;98086.97;;;14.95;100.00
18795;BME280;29610;49.022;12.114;2023-04-30T07:33:05;98081.97;;;14.97;100.00
18795;BME280;29610;49.022;12.114;2023-04-30T07:35:57;98069.38;;;15.41;100.00
18795;BME280;29610;49.022;12.114;2023-04-30T07:38:47;98079.47;;;15.88;100.00
18795;BME280;29610;49.022;12.114;2023-04-30T07:41:36;98076.31;;;16.02;100.00
18795;BME280;29610;49.022;12.114;2023-04-30T07:44:27;98088.72;;;15.36;100.00
18795;BME280;29610;49.022;12.114;2023-04-30T07:47:16;98083.13;;;14.96;100.00
18795;BME280;29610;49.022;12.114;2023-04-30T07:50:07;98080.81;;;14.86;100.00
18795;BME280;29610;49.022;12.114;2023-04-30T07:52:56;98086.31;;;15.22;100.00
18795;BME280;29610;49.022;12.114;2023-04-30T07:55:45;98072.28;;;15.84;100.00
18795;BME280;29610;49.022;12.114;2023-04-30T07:58:37;98088.66;;;15.44;100.00
18795;BME280;29610;49.022;12.114;2023-04-30T08:01:27;98085.06;;;14.96;100.00
18795;BME280;29610;49.022;12.114;2023-04-30T08:04:18;98083.88;;;14.73;100.00
18795;BME280;29610;49.022;12.114;2023-04-30T08:07:07;98088.06;;;14.70;100.00
18795;BME280;29610;49.022;12.114;2023-04-30T08:09:58;98088.56;;;14.84;100.00
18795;BME280;29610;49.022;12.114;2023-04-30T08:12:47;98085.41;;;15.18;100.00
18795;BME280;29610;49.022;12.114;2023-04-30T08:15:37;98083.59;;;15.82;100.00
18795;BME280;29610;49.022;12.114;2023-04-30T08:18:29;98084.34;;;16.35;100.00
18795;BME280;29610;49.022;12.114;2023-04-30T08:21:19;98082.38;;;16.90;100.00
18795;BME280;29610;49.022;12.114;2023-04-30T08:24:09;98084.38;;;16.62;100.00
18795;BME280;29610;49.022;12.114;2023-04-30T08:27:01;98086.91;;;16.55;100.00
18795;BME280;29610;49.022;12.114;2023-04-30T08:29:51;98077.69;;;16.36;100.00
18795;BME280;29610;49.022;12.114;2023-04-30T08:32:40;98085.22;;;16.51;100.00
18795;BME280;29610;49.022;12.114;2023-04-30T08:35:31;98085.88;;;16.20;100.00
18795;BME280;29610;49.022;12.114;2023-04-30T08:38:20;98077.56;;;16.44;100.00
18795;BME280;29610;49.022;12.114;2023-04-30T08:41:11;98079.97;;;16.46;100.00
18795;BME280;29610;49.022;12.114;2023-04-30T08:44:02;98072.34;;;16.82;100.00
18795;BME280;29610;49.022;12.114;2023-04-30T08:46:56;98076.78;;;16.87;100.00
18795;BME280;29610;49.022;12.114;2023-04-30T08:49:46;98082.38;;;17.06;100.00
18795;BME280;29610;49.022;12.114;2023-04-30T08:52:37;98072.44;;;17.98;100.00
18795;BME280;29610;49.022;12.114;2023-04-30T08:55:27;98073.34;;;17.21;100.00
18795;BME280;29610;49.022;12.114;2023-04-30T08:58:17;98076.81;;;17.18;100.00
18795;BME280;29610;49.022;12.114;2023-04-30T09:01:07;98070.25;;;17.22;100.00
18795;BME280;29610;49.022;12.114;2023-04-30T09:03:57;98070.84;;;17.63;100.00
18795;BME280;29610;49.022;12.114;2023-04-30T09:06:47;98078.47;;;17.69;100.00
18795;BME280;29610;49.022;12.114;2023-04-30T09:09:38;98075.34;;;18.24;100.00
18795;BME280;29610;49.022;12.114;2023-04-30T09:12:28;98077.97;;;18.74;100.00
18795;BME280;29610;49.022;12.114;2023-04-30T09:15:17;98068.94;;;19.42;100.00
18795;BME280;29610;49.022;12.114;2023-04-30T09:18:11;98077.97;;;19.42;100.00
18795;BME280;29610;49.022;12.114;2023-04-30T09:21:04;98073.31;;;18.21;98.29
18795;BME280;29610;49.022;12.114;2023-04-30T09:23:57;98077.59;;;17.84;100.00
18795;BME280;29610;49.022;12.114;2023-04-30T09:26:53;98072.69;;;17.59;100.00
18795;BME280;29610;49.022;12.114;2023-04-30T09:29:43;98069.50;;;17.72;100.00
18795;BME280;29610;49.022;12.114;2023-04-30T09:32:33;98069.69;;;17.98;100.00
18795;BME280;29610;49.022;12.114;2023-04-30T09:35:30;98067.75;;;18.18;94.24
18795;BME280;29610;49.022;12.114;2023-04-30T09:38:27;98065.00;;;18.18;87.71
18795;BME280;29610;49.022;12.114;2023-04-30T09:41:22;98075.66;;;18.57;100.00
18795;BME280;29610;49.022;12.114;2023-04-30T09:44:30;98072.78;;;18.50;100.00
18795;BME280;29610;49.022;12.114;2023-04-30T09:47:19;98066.28;;;18.81;100.00
18795;BME280;29610;49.022;12.114;2023-04-30T09:50:12;98071.66;;;18.36;100.00
18795;BME280;29610;49.022;12.114;2023-04-30T09:53:05;98064.34;;;18.62;100.00
18795;BME280;29610;49.022;12.114;2023-04-30T09:56:00;98066.00;;;18.29;100.00
18795;BME280;29610;49.022;12.114;2023-04-30T09:58:53;98061.81;;;18.35;100.00
18795;BME280;29610;49.022;12.114;2023-04-30T10:01:44;98060.72;;;19.23;97.22
18795;BME280;29610;49.022;12.114;2023-04-30T10:04:35;98057.28;;;20.07;91.53
18795;BME280;29610;49.022;12.114;2023-04-30T10:07:30;98058.94;;;20.78;86.26
18795;BME280;29610;49.022;12.114;2023-04-30T10:10:24;98051.53;;;21.77;75.36
18795;BME280;29610;49.022;12.114;2023-04-30T10:13:19;98057.38;;;20.77;73.46
18795;BME280;29610;49.022;12.114;2023-04-30T10:16:17;98058.03;;;19.75;82.27
18795;BME280;29610;49.022;12.114;2023-04-30T10:19:17;98058.22;;;19.37;94.37
18795;BME280;29610;49.022;12.114;2023-04-30T10:22:08;98054.38;;;19.97;91.55
18795;BME280;29610;49.022;12.114;2023-04-30T10:24:57;98055.03;;;19.35;88.62
18795;BME280;29610;49.022;12.114;2023-04-30T10:27:48;98059.00;;;19.37;90.89
18795;BME280;29610;49.022;12.114;2023-04-30T10:30:37;98052.84;;;18.38;84.03
18795;BME280;29610;49.022;12.114;2023-04-30T10:33:37;98045.59;;;17.92;100.00
18795;BME280;29610;49.022;12.114;2023-04-30T10:36:41;98052.47;;;18.20;95.78
18795;BME280;29610;49.022;12.114;2023-04-30T10:39:34;98037.97;;;17.85;98.80
18795;BME280;29610;49.022;12.114;2023-04-30T10:42:23;98039.13;;;19.51;91.24
18795;BME280;29610;49.022;12.114;2023-04-30T10:45:14;98029.00;;;19.84;77.32
18795;BME280;29610;49.022;12.114;2023-04-30T10:48:05;98010.22;;;20.60;65.84
18795;BME280;29610;49.022;12.114;2023-04-30T10:50:57;98015.44;;;21.08;86.95
18795;BME280;29610;49.022;12.114;2023-04-30T10:53:49;98014.06;;;23.32;76.79
18795;BME280;29610;49.022;12.114;2023-04-30T10:56:39;98001.94;;;25.05;66.41
18795;BME280;29610;49.022;12.114;2023-04-30T10:59:28;98006.53;;;25.73;56.11
18795;BME280;29610;49.022;12.114;2023-04-30T11:02:17;98008.69;;;26.90;56.97
18795;BME280;29610;49.022;12.114;2023-04-30T11:05:14;98006.03;;;27.79;52.78
18795;BME280;29610;49.022;12.114;2023-04-30T11:08:10;97996.28;;;28.10;49.43
18795;BME280;29610;49.022;12.114;2023-04-30T11:11:01;98002.44;;;28.60;50.03
18795;BME280;29610;49.022;12.114;2023-04-30T11:13:59;97989.03;;;28.87;44.64
18795;BME280;29610;49.022;12.114;2023-04-30T11:16:52;97994.38;;;28.82;47.11
18795;BME280;29610;49.022;12.114;2023-04-30T11:19:48;97996.72;;;28.08;44.67
18795;BME280;29610;49.022;12.114;2023-04-30T11:22:38;97991.13;;;28.08;46.41
18795;BME280;29610;49.022;12.114;2023-04-30T11:25:39;97983.56;;;27.86;45.23
18795;BME280;29610;49.022;12.114;2023-04-30T11:28:32;97987.50;;;27.46;45.24
18795;BME280;29610;49.022;12.114;2023-04-30T11:31:32;97985.47;;;26.70;44.98
18795;BME280;29610;49.022;12.114;2023-04-30T11:34:24;97982.03;;;25.95;45.53
18795;BME280;29610;49.022;12.114;2023-04-30T11:37:20;97978.53;;;24.99;48.55
18795;BME280;29610;49.022;12.114;2023-04-30T11:40:12;97980.19;;;24.93;51.77
18795;BME280;29610;49.022;12.114;2023-04-30T11:43:04;97978.25;;;24.83;52.58
18795;BME280;29610;49.022;12.114;2023-04-30T11:46:06;97970.03;;;24.62;50.07
18795;BME280;29610;49.022;12.114;2023-04-30T11:48:56;97978.03;;;24.53;48.65
18795;BME280;29610;49.022;12.114;2023-04-30T11:51:48;97971.56;;;24.77;51.59
18795;BME280;29610;49.022;12.114;2023-04-30T11:54:38;97971.19;;;26.04;51.41
18795;BME280;29610;49.022;12.114;2023-04-30T11:57:38;97969.81;;;26.79;48.99
18795;BME280;29610;49.022;12.114;2023-04-30T12:00:30;97972.72;;;26.42;47.52
18795;BME280;29610;49.022;12.114;2023-04-30T12:03:21;97971.75;;;25.04;46.94
18795;BME280;29610;49.022;12.114;2023-04-30T12:06:11;97976.00;;;25.19;53.10
18795;BME280;29610;49.022;12.114;2023-04-30T12:09:03;97967.56;;;26.41;46.79
18795;BME280;29610;49.022;12.114;2023-04-30T12:11:53;97964.09;;;26.90;45.21
18795;BME280;29610;49.022;12.114;2023-04-30T12:14:42;97959.97;;;27.90;46.07
18795;BME280;29610;49.022;12.114;2023-04-30T12:17:33;97957.25;;;28.42;42.92
18795;BME280;29610;49.022;12.114;2023-04-30T12:20:28;97954.59;;;28.19;43.56
18795;BME280;29610;49.022;12.114;2023-04-30T12:23:19;97957.66;;;27.43;43.28
18795;BME280;29610;49.022;12.114;2023-04-30T12:26:08;97955.09;;;26.79;43.37
18795;BME280;29610;49.022;12.114;2023-04-30T12:28:57;97956.88;;;26.36;45.23
18795;BME280;29610;49.022;12.114;2023-04-30T12:31:48;97959.19;;;24.09;44.08
18795;BME280;29610;49.022;12.114;2023-04-30T12:34:39;97954.63;;;23.18;52.59
18795;BME280;29610;49.022;12.114;2023-04-30T12:37:29;97957.41;;;22.59;53.35
18795;BME280;29610;49.022;12.114;2023-04-30T12:40:20;97954.66;;;23.15;56.87
18795;BME280;29610;49.022;12.114;2023-04-30T12:43:15;97946.63;;;23.73;55.33
18795;BME280;29610;49.022;12.114;2023-04-30T12:46:05;97960.59;;;23.03;53.05
18795;BME280;29610;49.022;12.114;2023-04-30T12:48:55;97947.91;;;23.12;53.51
18795;BME280;29610;49.022;12.114;2023-04-30T12:51:43;97952.25;;;22.82;54.62
18795;BME280;29610;49.022;12.114;2023-04-30T12:54:36;97943.56;;;21.66;57.82
18795;BME280;29610;49.022;12.114;2023-04-30T12:57:25;97948.66;;;20.99;63.57
18795;BME280;29610;49.022;12.114;2023-04-30T13:00:14;97943.69;;;21.19;68.59
18795;BME280;29610;49.022;12.114;2023-04-30T13:03:03;97941.22;;;21.75;64.35
18795;BME280;29610;49.022;12.114;2023-04-30T13:05:53;97933.53;;;22.26;52.18
18795;BME280;29610;49.022;12.114;2023-04-30T13:08:43;97928.50;;;23.23;55.42
18795;BME280;29610;49.022;12.114;2023-04-30T13:11:46;97936.03;;;22.98;54.69
18795;BME280;29610;49.022;12.114;2023-04-30T13:14:37;97925.34;;;22.79;52.06
18795;BME280;29610;49.022;12.114;2023-04-30T13:17:26;97929.19;;;22.22;51.63
18795;BME280;29610;49.022;12.114;2023-04-30T13:20:15;97921.59;;;21.91;51.99
18795;BME280;29610;49.022;12.114;2023-04-30T13:23:09;97922.88;;;21.39;58.87
18795;BME280;29610;49.022;12.114;2023-04-30T13:25:58;97920.88;;;22.18;63.99
18795;BME280;29610;49.022;12.114;2023-04-30T13:28:49;97909.91;;;23.06;61.43
18795;BME280;29610;49.022;12.114;2023-04-30T13:31:38;97900.53;;;24.07;54.20
18795;BME280;29610;49.022;12.114;2023-04-30T13:34:29;97895.41;;;25.12;48.94
18795;BME280;29610;49.022;12.114;2023-04-30T13:37:21;97890.50;;;26.01;47.19
18795;BME280;29610;49.022;12.114;2023-04-30T13:40:11;97890.56;;;25.60;47.10
18795;BME280;29610;49.022;12.114;2023-04-30T13:43:00;97896.88;;;24.21;49.04
18795;BME280;29610;49.022;12.114;2023-04-30T13:45:51;97901.09;;;23.64;46.87
18795;BME280;29610;49.022;12.114;2023-04-30T13:48:40;97898.78;;;23.38;51.83
18795;BME280;29610;49.022;12.114;2023-04-30T13:51:29;97892.41;;;23.44;57.81
18795;BME280;29610;49.022;12.114;2023-04-30T13:54:18;97893.25;;;23.27;52.93
18795;BME280;29610;49.022;12.114;2023-04-30T13:57:08;97892.28;;;23.83;53.26
18795;BME280;29610;49.022;12.114;2023-04-30T13:59:57;97882.84;;;23.66;51.28
18795;BME280;29610;49.022;12.114;2023-04-30T14:02:47;97886.50;;;23.21;50.45
18795;BME280;29610;49.022;12.114;2023-04-30T14:05:37;97887.59;;;21.90;52.04
18795;BME280;29610;49.022;12.114;2023-04-30T14:08:26;97888.50;;;21.40;57.25
18795;BME280;29610;49.022;12.114;2023-04-30T14:11:16;97893.13;;;22.01;55.63
18795;BME280;29610;49.022;12.114;2023-04-30T14:14:11;97891.63;;;22.21;56.85
18795;BME280;29610;49.022;12.114;2023-04-30T14:17:00;97891.91;;;21.81;58.05
18795;BME280;29610;49.022;12.114;2023-04-30T14:19:52;97883.31;;;22.17;58.46
18795;BME280;29610;49.022;12.114;2023-04-30T14:22:42;97874.63;;;22.47;60.03
18795;BME280;29610;49.022;12.114;2023-04-30T14:25:31;97869.13;;;22.89;59.50
18795;BME280;29610;49.022;12.114;2023-04-30T14:28:20;97863.88;;;23.51;59.15
18795;BME280;29610;49.022;12.114;2023-04-30T14:31:08;97861.69;;;24.04;57.47
18795;BME280;29610;49.022;12.114;2023-04-30T14:33:59;97856.00;;;23.35;49.67
18795;BME280;29610;49.022;12.114;2023-04-30T14:36:49;97861.13;;;23.44;52.05
18795;BME280;29610;49.022;12.114;2023-04-30T14:39:38;97865.13;;;23.11;53.05
18795;BME280;29610;49.022;12.114;2023-04-30T14:42:27;97858.06;;;22.78;52.55
18795;BME280;29610;49.022;12.114;2023-04-30T14:45:16;97852.13;;;22.73;53.70